sensor_id;sensor_type;location;lat;lon;timestamp;temperature;humidity
16158;DHT22;8184;60.256;18.694;2024-01-25T00:00:35;0.00;99.90
16158;DHT22;8184;60.256;18.694;2024-01-25T00:03:06;-0.10;99.90
16158;DHT22;8184;60.256;18.694;2024-01-25T00:05:34;-0.10;99.90
16158;DHT22;8184;60.256;18.694;2024-01-25T00:08:03;-0.10;99.90
16158;DHT22;8184;60.256;18.694;2024-01-25T00:10:31;0.00;99.90
16158;DHT22;8184;60.256;18.694;2024-01-25T00:12:59;-0.10;99.90
16158;DHT22;8184;60.256;18.694;2024-01-25T00:15:30;-0.10;99.90
16158;DHT22;8184;60.256;18.694;2024-01-25T00:17:58;-0.10;99.90
16158;DHT22;8184;60.256;18.694;2024-01-25T00:20:28;-0.10;99.90
16158;DHT22;8184;60.256;18.694;2024-01-25T00:22:56;-0.10;99.90
16158;DHT22;8184;60.256;18.694;2024-01-25T00:25:25;-0.10;99.90
16158;DHT22;8184;60.256;18.694;2024-01-25T00:27:53;-0.10;99.90
16158;DHT22;8184;60.256;18.694;2024-01-25T00:30:26;-0.20;99.90
16158;DHT22;8184;60.256;18.694;2024-01-25T00:32:55;-0.20;99.90
16158;DHT22;8184;60.256;18.694;2024-01-25T00:35:24;-0.20;99.90
16158;DHT22;8184;60.256;18.694;2024-01-25T00:37:55;-0.10;99.90
16158;DHT22;8184;60.256;18.694;2024-01-25T00:40:23;-0.10;99.90
16158;DHT22;8184;60.256;18.694;2024-01-25T00:42:52;-0.20;99.90
16158;DHT22;8184;60.256;18.694;2024-01-25T00:45:21;-0.10;99.90
16158;DHT22;8184;60.256;18.694;2024-01-25T00:47:50;-0.20;99.90
16158;DHT22;8184;60.256;18.694;2024-01-25T00:50:19;-0.20;99.90
16158;DHT22;8184;60.256;18.694;2024-01-25T00:52:55;-0.20;99.90
16158;DHT22;8184;60.256;18.694;2024-01-25T00:55:24;-0.20;99.90
16158;DHT22;8184;60.256;18.694;2024-01-25T00:57:52;-0.30;99.90
16158;DHT22;8184;60.256;18.694;2024-01-25T01:00:21;-0.30;99.90
16158;DHT22;8184;60.256;18.694;2024-01-25T01:02:50;-0.30;99.90
16158;DHT22;8184;60.256;18.694;2024-01-25T01:05:20;-0.30;99.90
16158;DHT22;8184;60.256;18.694;2024-01-25T01:07:48;-0.30;99.90
16158;DHT22;8184;60.256;18.694;2024-01-25T01:10:18;-0.30;99.90
16158;DHT22;8184;60.256;18.694;2024-01-25T01:12:47;-0.30;99.90
16158;DHT22;8184;60.256;18.694;2024-01-25T01:15:16;-0.30;99.90
16158;DHT22;8184;60.256;18.694;2024-01-25T01:17:47;-0.30;99.90
16158;DHT22;8184;60.256;18.694;2024-01-25T01:20:16;-0.30;99.90
16158;DHT22;8184;60.256;18.694;2024-01-25T01:22:44;-0.40;99.90
16158;DHT22;8184;60.256;18.694;2024-01-25T01:25:12;-0.30;99.90
16158;DHT22;8184;60.256;18.694;2024-01-25T01:27:42;-0.30;99.90
16158;DHT22;8184;60.256;18.694;2024-01-25T01:30:11;-0.30;99.90
16158;DHT22;8184;60.256;18.694;2024-01-25T01:32:39;-0.30;99.90
16158;DHT22;8184;60.256;18.694;2024-01-25T01:35:08;-0.30;99.90
16158;DHT22;8184;60.256;18.694;2024-01-25T01:37:36;-0.30;99.90
16158;DHT22;8184;60.256;18.694;2024-01-25T01:40:05;-0.30;99.90
16158;DHT22;8184;60.256;18.694;2024-01-25T01:42:34;-0.40;99.90
16158;DHT22;8184;60.256;18.694;2024-01-25T01:45:04;-0.30;99.90
16158;DHT22;8184;60.256;18.694;2024-01-25T01:47:32;-0.40;99.90
16158;DHT22;8184;60.256;18.694;2024-01-25T01:50:01;-0.30;99.90
16158;DHT22;8184;60.256;18.694;2024-01-25T01:52:32;-0.30;99.90
16158;DHT22;8184;60.256;18.694;2024-01-25T01:55:00;-0.30;99.90
16158;DHT22;8184;60.256;18.694;2024-01-25T01:57:29;-0.30;99.90
16158;DHT22;8184;60.256;18.694;2024-01-25T01:59:57;-0.30;99.90
16158;DHT22;8184;60.256;18.694;2024-01-25T02:02:28;-0.30;99.90
16158;DHT22;8184;60.256;18.694;2024-01-25T02:04:57;-0.30;99.90
16158;DHT22;8184;60.256;18.694;2024-01-25T02:07:25;-0.20;99.90
16158;DHT22;8184;60.256;18.694;2024-01-25T02:09:54;-0.20;99.90
16158;DHT22;8184;60.256;18.694;2024-01-25T02:12:22;-0.20;99.90
16158;DHT22;8184;60.256;18.694;2024-01-25T02:14:50;-0.20;99.90
16158;DHT22;8184;60.256;18.694;2024-01-25T02:17:18;-0.30;99.90
16158;DHT22;8184;60.256;18.694;2024-01-25T02:19:50;-0.30;99.90
16158;DHT22;8184;60.256;18.694;2024-01-25T02:22:20;-0.30;99.90
16158;DHT22;8184;60.256;18.694;2024-01-25T02:24:48;-0.40;99.90
16158;DHT22;8184;60.256;18.694;2024-01-25T02:27:19;-0.40;99.90
16158;DHT22;8184;60.256;18.694;2024-01-25T02:29:47;-0.40;99.90
16158;DHT22;8184;60.256;18.694;2024-01-25T02:32:15;-0.50;99.90
16158;DHT22;8184;60.256;18.694;2024-01-25T02:34:44;-0.50;99.90
16158;DHT22;8184;60.256;18.694;2024-01-25T02:37:12;-0.50;99.90
16158;DHT22;8184;60.256;18.694;2024-01-25T02:39:45;-0.50;99.90
16158;DHT22;8184;60.256;18.694;2024-01-25T02:42:13;-0.50;99.90
16158;DHT22;8184;60.256;18.694;2024-01-25T02:44:43;-0.40;99.90
16158;DHT22;8184;60.256;18.694;2024-01-25T02:47:11;-0.50;99.90
16158;DHT22;8184;60.256;18.694;2024-01-25T02:49:42;-0.40;99.90
16158;DHT22;8184;60.256;18.694;2024-01-25T02:52:13;-0.40;99.90
16158;DHT22;8184;60.256;18.694;2024-01-25T02:54:41;-0.50;99.90
16158;DHT22;8184;60.256;18.694;2024-01-25T02:57:11;-0.40;99.90
16158;DHT22;8184;60.256;18.694;2024-01-25T02:59:39;-0.40;99.90
16158;DHT22;8184;60.256;18.694;2024-01-25T03:02:08;-0.40;99.90
16158;DHT22;8184;60.256;18.694;2024-01-25T03:04:36;-0.40;99.90
16158;DHT22;8184;60.256;18.694;2024-01-25T03:07:06;-0.40;99.90
16158;DHT22;8184;60.256;18.694;2024-01-25T03:09:35;-0.40;99.90
16158;DHT22;8184;60.256;18.694;2024-01-25T03:12:03;-0.40;99.90
16158;DHT22;8184;60.256;18.694;2024-01-25T03:14:33;-0.40;99.90
16158;DHT22;8184;60.256;18.694;2024-01-25T03:17:01;-0.30;99.90
16158;DHT22;8184;60.256;18.694;2024-01-25T03:19:30;-0.30;99.90
16158;DHT22;8184;60.256;18.694;2024-01-25T03:21:58;-0.40;99.90
16158;DHT22;8184;60.256;18.694;2024-01-25T03:24:28;-0.30;99.90
16158;DHT22;8184;60.256;18.694;2024-01-25T03:26:57;-0.30;99.90
16158;DHT22;8184;60.256;18.694;2024-01-25T03:29:25;-0.30;99.90
16158;DHT22;8184;60.256;18.694;2024-01-25T03:31:55;-0.30;99.90
16158;DHT22;8184;60.256;18.694;2024-01-25T03:34:23;-0.40;99.90
16158;DHT22;8184;60.256;18.694;2024-01-25T03:36:51;-0.40;99.90
16158;DHT22;8184;60.256;18.694;2024-01-25T03:39:21;-0.40;99.90
16158;DHT22;8184;60.256;18.694;2024-01-25T03:41:52;-0.40;99.90
16158;DHT22;8184;60.256;18.694;2024-01-25T03:44:20;-0.40;99.90
16158;DHT22;8184;60.256;18.694;2024-01-25T03:46:49;-0.30;99.90
16158;DHT22;8184;60.256;18.694;2024-01-25T03:49:18;-0.40;99.90
16158;DHT22;8184;60.256;18.694;2024-01-25T03:51:50;-0.40;99.90
16158;DHT22;8184;60.256;18.694;2024-01-25T03:54:19;-0.40;99.90
16158;DHT22;8184;60.256;18.694;2024-01-25T03:56:47;-0.40;99.90
16158;DHT22;8184;60.256;18.694;2024-01-25T03:59:15;-0.40;99.90
16158;DHT22;8184;60.256;18.694;2024-01-25T04:01:44;-0.40;99.90
16158;DHT22;8184;60.256;18.694;2024-01-25T04:04:14;-0.40;99.90
16158;DHT22;8184;60.256;18.694;2024-01-25T04:06:44;-0.40;99.90
16158;DHT22;8184;60.256;18.694;2024-01-25T04:09:14;-0.40;99.90
16158;DHT22;8184;60.256;18.694;2024-01-25T04:11:42;-0.40;99.90
16158;DHT22;8184;60.256;18.694;2024-01-25T04:14:10;-0.40;99.90
16158;DHT22;8184;60.256;18.694;2024-01-25T04:16:39;-0.40;99.90
16158;DHT22;8184;60.256;18.694;2024-01-25T04:19:07;-0.50;99.90
16158;DHT22;8184;60.256;18.694;2024-01-25T04:21:39;-0.50;99.90
16158;DHT22;8184;60.256;18.694;2024-01-25T04:24:09;-0.50;99.90
16158;DHT22;8184;60.256;18.694;2024-01-25T04:26:37;-0.50;99.90
16158;DHT22;8184;60.256;18.694;2024-01-25T04:29:06;-0.60;99.90
16158;DHT22;8184;60.256;18.694;2024-01-25T04:31:34;-0.50;99.90
16158;DHT22;8184;60.256;18.694;2024-01-25T04:34:05;-0.50;99.90
16158;DHT22;8184;60.256;18.694;2024-01-25T04:36:34;-0.50;99.90
16158;DHT22;8184;60.256;18.694;2024-01-25T04:39:03;-0.50;99.90
16158;DHT22;8184;60.256;18.694;2024-01-25T04:41:33;-0.50;99.90
16158;DHT22;8184;60.256;18.694;2024-01-25T04:44:01;-0.50;99.90
16158;DHT22;8184;60.256;18.694;2024-01-25T04:46:29;-0.50;99.90
16158;DHT22;8184;60.256;18.694;2024-01-25T04:49:02;-0.60;99.90
16158;DHT22;8184;60.256;18.694;2024-01-25T04:51:30;-0.60;99.90
16158;DHT22;8184;60.256;18.694;2024-01-25T04:53:59;-0.60;99.90
16158;DHT22;8184;60.256;18.694;2024-01-25T04:56:27;-0.60;99.90
16158;DHT22;8184;60.256;18.694;2024-01-25T04:58:56;-0.60;99.90
16158;DHT22;8184;60.256;18.694;2024-01-25T05:01:25;-0.60;99.90
16158;DHT22;8184;60.256;18.694;2024-01-25T05:03:53;-0.60;99.90
16158;DHT22;8184;60.256;18.694;2024-01-25T05:06:22;-0.60;99.90
16158;DHT22;8184;60.256;18.694;2024-01-25T05:08:51;-0.60;99.90
16158;DHT22;8184;60.256;18.694;2024-01-25T05:11:19;-0.60;99.90
16158;DHT22;8184;60.256;18.694;2024-01-25T05:13:47;-0.70;99.90
16158;DHT22;8184;60.256;18.694;2024-01-25T05:16:17;-0.60;99.90
16158;DHT22;8184;60.256;18.694;2024-01-25T05:18:45;-0.60;99.90
16158;DHT22;8184;60.256;18.694;2024-01-25T05:21:14;-0.60;99.90
16158;DHT22;8184;60.256;18.694;2024-01-25T05:23:42;-0.60;99.90
16158;DHT22;8184;60.256;18.694;2024-01-25T05:26:10;-0.60;99.90
16158;DHT22;8184;60.256;18.694;2024-01-25T05:28:39;-0.60;99.90
16158;DHT22;8184;60.256;18.694;2024-01-25T05:31:07;-0.60;99.90
16158;DHT22;8184;60.256;18.694;2024-01-25T05:33:41;-0.60;99.90
16158;DHT22;8184;60.256;18.694;2024-01-25T05:36:09;-0.60;99.90
16158;DHT22;8184;60.256;18.694;2024-01-25T05:38:39;-0.60;99.90
16158;DHT22;8184;60.256;18.694;2024-01-25T05:41:07;-0.60;99.90
16158;DHT22;8184;60.256;18.694;2024-01-25T05:43:35;-0.50;99.90
16158;DHT22;8184;60.256;18.694;2024-01-25T05:46:05;-0.60;99.90
16158;DHT22;8184;60.256;18.694;2024-01-25T05:48:33;-0.60;99.90
16158;DHT22;8184;60.256;18.694;2024-01-25T05:51:03;-0.60;99.90
16158;DHT22;8184;60.256;18.694;2024-01-25T05:53:32;-0.60;99.90
16158;DHT22;8184;60.256;18.694;2024-01-25T05:56:00;-0.60;99.90
16158;DHT22;8184;60.256;18.694;2024-01-25T05:58:30;-0.60;99.90
16158;DHT22;8184;60.256;18.694;2024-01-25T06:00:59;-0.60;99.90
16158;DHT22;8184;60.256;18.694;2024-01-25T06:03:27;-0.60;99.90
16158;DHT22;8184;60.256;18.694;2024-01-25T06:05:56;-0.60;99.90
16158;DHT22;8184;60.256;18.694;2024-01-25T06:08:26;-0.60;99.90
16158;DHT22;8184;60.256;18.694;2024-01-25T06:10:54;-0.60;99.90
16158;DHT22;8184;60.256;18.694;2024-01-25T06:13:22;-0.60;99.90
16158;DHT22;8184;60.256;18.694;2024-01-25T06:15:51;-0.70;99.90
16158;DHT22;8184;60.256;18.694;2024-01-25T06:18:19;-0.70;99.90
16158;DHT22;8184;60.256;18.694;2024-01-25T06:20:52;-0.70;99.90
16158;DHT22;8184;60.256;18.694;2024-01-25T06:23:20;-0.70;99.90
16158;DHT22;8184;60.256;18.694;2024-01-25T06:25:50;-0.70;99.90
16158;DHT22;8184;60.256;18.694;2024-01-25T06:28:18;-0.80;99.90
16158;DHT22;8184;60.256;18.694;2024-01-25T06:30:47;-0.70;99.90
16158;DHT22;8184;60.256;18.694;2024-01-25T06:33:15;-0.70;99.90
16158;DHT22;8184;60.256;18.694;2024-01-25T06:35:44;-0.70;99.90
16158;DHT22;8184;60.256;18.694;2024-01-25T06:38:13;-0.80;99.90
16158;DHT22;8184;60.256;18.694;2024-01-25T06:40:42;-0.80;99.90
16158;DHT22;8184;60.256;18.694;2024-01-25T06:43:12;-0.70;99.90
16158;DHT22;8184;60.256;18.694;2024-01-25T06:45:40;-0.60;99.90
16158;DHT22;8184;60.256;18.694;2024-01-25T06:48:08;-0.60;99.90
16158;DHT22;8184;60.256;18.694;2024-01-25T06:50:40;-0.70;99.90
16158;DHT22;8184;60.256;18.694;2024-01-25T06:53:08;-0.70;99.90
16158;DHT22;8184;60.256;18.694;2024-01-25T06:55:36;-0.60;99.90
16158;DHT22;8184;60.256;18.694;2024-01-25T06:58:05;-0.60;99.90
16158;DHT22;8184;60.256;18.694;2024-01-25T07:00:35;-0.70;99.90
16158;DHT22;8184;60.256;18.694;2024-01-25T07:03:06;-0.80;99.90
16158;DHT22;8184;60.256;18.694;2024-01-25T07:05:35;-0.80;99.90
16158;DHT22;8184;60.256;18.694;2024-01-25T07:08:03;-0.70;99.90
16158;DHT22;8184;60.256;18.694;2024-01-25T07:10:31;-0.60;99.90
16158;DHT22;8184;60.256;18.694;2024-01-25T07:13:00;-0.70;99.90
16158;DHT22;8184;60.256;18.694;2024-01-25T07:15:28;-0.60;99.90
16158;DHT22;8184;60.256;18.694;2024-01-25T07:17:58;-0.70;99.90
16158;DHT22;8184;60.256;18.694;2024-01-25T07:20:26;-0.70;99.90
16158;DHT22;8184;60.256;18.694;2024-01-25T07:22:56;-0.70;99.90
16158;DHT22;8184;60.256;18.694;2024-01-25T07:25:24;-0.70;99.90
16158;DHT22;8184;60.256;18.694;2024-01-25T07:27:53;-0.70;99.90
16158;DHT22;8184;60.256;18.694;2024-01-25T07:30:21;-0.70;99.90
16158;DHT22;8184;60.256;18.694;2024-01-25T07:32:50;-0.70;99.90
16158;DHT22;8184;60.256;18.694;2024-01-25T07:35:20;-0.80;99.90
16158;DHT22;8184;60.256;18.694;2024-01-25T07:37:50;-0.70;99.90
16158;DHT22;8184;60.256;18.694;2024-01-25T07:40:19;-0.70;99.90
16158;DHT22;8184;60.256;18.694;2024-01-25T07:42:47;-0.70;99.90
16158;DHT22;8184;60.256;18.694;2024-01-25T07:45:15;-0.70;99.90
16158;DHT22;8184;60.256;18.694;2024-01-25T07:47:43;-0.80;99.90
16158;DHT22;8184;60.256;18.694;2024-01-25T07:50:14;-0.70;99.90
16158;DHT22;8184;60.256;18.694;2024-01-25T07:52:45;-0.70;99.90
16158;DHT22;8184;60.256;18.694;2024-01-25T07:55:14;-0.70;99.90
16158;DHT22;8184;60.256;18.694;2024-01-25T07:57:42;-0.60;99.90
16158;DHT22;8184;60.256;18.694;2024-01-25T08:00:11;-0.60;99.90
16158;DHT22;8184;60.256;18.694;2024-01-25T08:02:39;-0.60;99.90
16158;DHT22;8184;60.256;18.694;2024-01-25T08:05:08;-0.60;99.90
16158;DHT22;8184;60.256;18.694;2024-01-25T08:07:36;-0.60;99.90
16158;DHT22;8184;60.256;18.694;2024-01-25T08:10:07;-0.60;99.90
16158;DHT22;8184;60.256;18.694;2024-01-25T08:12:36;-0.60;99.90
16158;DHT22;8184;60.256;18.694;2024-01-25T08:15:16;-0.50;99.90
16158;DHT22;8184;60.256;18.694;2024-01-25T08:17:45;-0.60;99.90
16158;DHT22;8184;60.256;18.694;2024-01-25T08:20:13;-0.60;99.90
16158;DHT22;8184;60.256;18.694;2024-01-25T08:22:42;-0.60;99.90
16158;DHT22;8184;60.256;18.694;2024-01-25T08:25:11;-0.60;99.90
16158;DHT22;8184;60.256;18.694;2024-01-25T08:27:40;-0.50;99.90
16158;DHT22;8184;60.256;18.694;2024-01-25T08:30:09;-0.50;99.90
16158;DHT22;8184;60.256;18.694;2024-01-25T08:32:37;-0.50;99.90
16158;DHT22;8184;60.256;18.694;2024-01-25T08:35:05;-0.50;99.90
16158;DHT22;8184;60.256;18.694;2024-01-25T08:37:34;-0.50;99.90
16158;DHT22;8184;60.256;18.694;2024-01-25T08:40:05;-0.50;99.90
16158;DHT22;8184;60.256;18.694;2024-01-25T08:42:35;-0.60;99.90
16158;DHT22;8184;60.256;18.694;2024-01-25T08:45:04;-0.50;99.90
16158;DHT22;8184;60.256;18.694;2024-01-25T08:47:35;-0.50;99.90
16158;DHT22;8184;60.256;18.694;2024-01-25T08:50:04;-0.60;99.90
16158;DHT22;8184;60.256;18.694;2024-01-25T08:52:39;-0.60;99.90
16158;DHT22;8184;60.256;18.694;2024-01-25T08:55:08;-0.60;99.90
16158;DHT22;8184;60.256;18.694;2024-01-25T08:57:38;-0.60;99.90
16158;DHT22;8184;60.256;18.694;2024-01-25T09:00:08;-0.60;99.90
16158;DHT22;8184;60.256;18.694;2024-01-25T09:02:37;-0.70;99.90
16158;DHT22;8184;60.256;18.694;2024-01-25T09:05:06;-0.70;99.90
16158;DHT22;8184;60.256;18.694;2024-01-25T09:07:35;-0.80;99.90
16158;DHT22;8184;60.256;18.694;2024-01-25T09:10:04;-0.80;99.90
16158;DHT22;8184;60.256;18.694;2024-01-25T09:12:33;-0.80;99.90
16158;DHT22;8184;60.256;18.694;2024-01-25T09:15:04;-0.80;99.90
16158;DHT22;8184;60.256;18.694;2024-01-25T09:17:32;-0.80;99.90
16158;DHT22;8184;60.256;18.694;2024-01-25T09:20:01;-0.80;99.90
16158;DHT22;8184;60.256;18.694;2024-01-25T09:22:30;-0.80;99.90
16158;DHT22;8184;60.256;18.694;2024-01-25T09:24:59;-0.90;99.90
16158;DHT22;8184;60.256;18.694;2024-01-25T09:27:33;-0.80;99.90
16158;DHT22;8184;60.256;18.694;2024-01-25T09:30:01;-1.00;99.90
16158;DHT22;8184;60.256;18.694;2024-01-25T09:32:31;-1.00;99.90
16158;DHT22;8184;60.256;18.694;2024-01-25T09:35:03;-1.00;99.90
16158;DHT22;8184;60.256;18.694;2024-01-25T09:37:35;-0.90;99.90
16158;DHT22;8184;60.256;18.694;2024-01-25T09:40:03;-0.90;99.90
16158;DHT22;8184;60.256;18.694;2024-01-25T09:42:33;-0.80;99.90
16158;DHT22;8184;60.256;18.694;2024-01-25T09:45:03;-0.80;99.90
16158;DHT22;8184;60.256;18.694;2024-01-25T09:47:35;-0.90;99.90
16158;DHT22;8184;60.256;18.694;2024-01-25T09:50:05;-0.90;99.90
16158;DHT22;8184;60.256;18.694;2024-01-25T09:52:33;-0.90;99.90
16158;DHT22;8184;60.256;18.694;2024-01-25T09:55:03;-1.00;99.90
16158;DHT22;8184;60.256;18.694;2024-01-25T09:57:34;-0.90;99.90
16158;DHT22;8184;60.256;18.694;2024-01-25T10:00:03;-0.90;99.90
16158;DHT22;8184;60.256;18.694;2024-01-25T10:02:33;-0.90;99.90
16158;DHT22;8184;60.256;18.694;2024-01-25T10:05:03;-1.00;99.90
16158;DHT22;8184;60.256;18.694;2024-01-25T10:07:35;-1.00;99.90
16158;DHT22;8184;60.256;18.694;2024-01-25T10:10:04;-1.00;99.90
16158;DHT22;8184;60.256;18.694;2024-01-25T10:12:33;-0.90;99.90
16158;DHT22;8184;60.256;18.694;2024-01-25T10:15:02;-0.90;99.90
16158;DHT22;8184;60.256;18.694;2024-01-25T10:17:31;-0.80;99.90
16158;DHT22;8184;60.256;18.694;2024-01-25T10:20:21;-0.90;99.90
16158;DHT22;8184;60.256;18.694;2024-01-25T10:22:52;-0.90;99.90
16158;DHT22;8184;60.256;18.694;2024-01-25T10:25:25;-0.90;99.90
16158;DHT22;8184;60.256;18.694;2024-01-25T10:27:54;-0.90;99.90
16158;DHT22;8184;60.256;18.694;2024-01-25T10:30:23;-1.00;99.90
16158;DHT22;8184;60.256;18.694;2024-01-25T10:32:52;-0.90;99.90
16158;DHT22;8184;60.256;18.694;2024-01-25T10:35:22;-1.00;99.90
16158;DHT22;8184;60.256;18.694;2024-01-25T10:37:51;-1.10;99.90
16158;DHT22;8184;60.256;18.694;2024-01-25T10:40:20;-1.00;99.90
16158;DHT22;8184;60.256;18.694;2024-01-25T10:42:49;-1.00;99.90
16158;DHT22;8184;60.256;18.694;2024-01-25T10:45:19;-1.10;99.90
16158;DHT22;8184;60.256;18.694;2024-01-25T10:47:48;-1.10;99.90
16158;DHT22;8184;60.256;18.694;2024-01-25T10:50:16;-1.00;99.90
16158;DHT22;8184;60.256;18.694;2024-01-25T10:52:47;-1.00;99.90
16158;DHT22;8184;60.256;18.694;2024-01-25T10:55:16;-1.00;99.90
16158;DHT22;8184;60.256;18.694;2024-01-25T10:57:44;-0.90;99.90
16158;DHT22;8184;60.256;18.694;2024-01-25T11:00:14;-0.80;99.90
16158;DHT22;8184;60.256;18.694;2024-01-25T11:02:50;-1.00;99.90
16158;DHT22;8184;60.256;18.694;2024-01-25T11:05:20;-1.00;99.90
16158;DHT22;8184;60.256;18.694;2024-01-25T11:07:53;-1.00;99.90
16158;DHT22;8184;60.256;18.694;2024-01-25T11:10:24;-1.00;99.90
16158;DHT22;8184;60.256;18.694;2024-01-25T11:12:55;-1.00;99.90
16158;DHT22;8184;60.256;18.694;2024-01-25T11:15:24;-0.90;99.90
16158;DHT22;8184;60.256;18.694;2024-01-25T11:17:57;-0.90;99.90
16158;DHT22;8184;60.256;18.694;2024-01-25T11:20:26;-0.90;99.90
16158;DHT22;8184;60.256;18.694;2024-01-25T11:22:57;-1.00;99.90
16158;DHT22;8184;60.256;18.694;2024-01-25T11:25:26;-0.90;99.90
16158;DHT22;8184;60.256;18.694;2024-01-25T11:27:55;-1.00;99.90
16158;DHT22;8184;60.256;18.694;2024-01-25T11:30:23;-0.90;99.90
16158;DHT22;8184;60.256;18.694;2024-01-25T11:32:53;-1.00;99.90
16158;DHT22;8184;60.256;18.694;2024-01-25T11:35:21;-1.00;99.90
16158;DHT22;8184;60.256;18.694;2024-01-25T11:37:53;-0.90;99.90
16158;DHT22;8184;60.256;18.694;2024-01-25T11:40:23;-0.90;99.90
16158;DHT22;8184;60.256;18.694;2024-01-25T11:42:52;-0.90;99.90
16158;DHT22;8184;60.256;18.694;2024-01-25T11:45:20;-0.90;99.90
16158;DHT22;8184;60.256;18.694;2024-01-25T11:47:49;-0.90;99.90
16158;DHT22;8184;60.256;18.694;2024-01-25T11:50:17;-0.90;99.90
16158;DHT22;8184;60.256;18.694;2024-01-25T11:52:46;-0.90;99.90
16158;DHT22;8184;60.256;18.694;2024-01-25T11:55:15;-0.90;99.90
16158;DHT22;8184;60.256;18.694;2024-01-25T11:57:44;-0.90;99.90
16158;DHT22;8184;60.256;18.694;2024-01-25T12:00:14;-0.80;99.90
16158;DHT22;8184;60.256;18.694;2024-01-25T12:02:45;-0.70;99.90
16158;DHT22;8184;60.256;18.694;2024-01-25T12:05:13;-0.90;99.90
16158;DHT22;8184;60.256;18.694;2024-01-25T12:07:42;-0.80;99.90
16158;DHT22;8184;60.256;18.694;2024-01-25T12:10:15;-0.80;99.90
16158;DHT22;8184;60.256;18.694;2024-01-25T12:12:45;-0.80;99.90
16158;DHT22;8184;60.256;18.694;2024-01-25T12:15:13;-0.80;99.90
16158;DHT22;8184;60.256;18.694;2024-01-25T12:17:41;-0.80;99.90
16158;DHT22;8184;60.256;18.694;2024-01-25T12:20:10;-0.80;99.90
16158;DHT22;8184;60.256;18.694;2024-01-25T12:22:39;-0.80;99.90
16158;DHT22;8184;60.256;18.694;2024-01-25T12:25:08;-0.80;99.90
16158;DHT22;8184;60.256;18.694;2024-01-25T12:27:39;-0.80;99.90
16158;DHT22;8184;60.256;18.694;2024-01-25T12:30:10;-0.80;99.90
16158;DHT22;8184;60.256;18.694;2024-01-25T12:32:39;-0.80;99.90
16158;DHT22;8184;60.256;18.694;2024-01-25T12:35:07;-0.70;99.90
16158;DHT22;8184;60.256;18.694;2024-01-25T12:37:36;-0.80;99.90
16158;DHT22;8184;60.256;18.694;2024-01-25T12:40:05;-0.80;99.90
16158;DHT22;8184;60.256;18.694;2024-01-25T12:42:34;-0.70;99.90
16158;DHT22;8184;60.256;18.694;2024-01-25T12:45:04;-0.70;99.90
16158;DHT22;8184;60.256;18.694;2024-01-25T12:47:35;-0.80;99.90
16158;DHT22;8184;60.256;18.694;2024-01-25T12:50:04;-0.80;99.90
16158;DHT22;8184;60.256;18.694;2024-01-25T12:52:32;-0.80;99.90
16158;DHT22;8184;60.256;18.694;2024-01-25T12:55:00;-0.90;99.90
16158;DHT22;8184;60.256;18.694;2024-01-25T12:57:30;-0.80;99.90
16158;DHT22;8184;60.256;18.694;2024-01-25T13:00:01;-0.80;99.90
16158;DHT22;8184;60.256;18.694;2024-01-25T13:02:30;-0.90;99.90
16158;DHT22;8184;60.256;18.694;2024-01-25T13:05:00;-0.80;99.90
16158;DHT22;8184;60.256;18.694;2024-01-25T13:07:29;-0.80;99.90
16158;DHT22;8184;60.256;18.694;2024-01-25T13:09:57;-0.80;99.90
16158;DHT22;8184;60.256;18.694;2024-01-25T13:12:25;-0.90;99.90
16158;DHT22;8184;60.256;18.694;2024-01-25T13:14:53;-0.90;99.90
16158;DHT22;8184;60.256;18.694;2024-01-25T13:17:21;-0.90;99.90
16158;DHT22;8184;60.256;18.694;2024-01-25T13:19:51;-0.80;99.90
16158;DHT22;8184;60.256;18.694;2024-01-25T13:22:20;-1.00;99.90
16158;DHT22;8184;60.256;18.694;2024-01-25T13:24:49;-0.90;99.90
16158;DHT22;8184;60.256;18.694;2024-01-25T13:27:17;-0.90;99.90
16158;DHT22;8184;60.256;18.694;2024-01-25T13:29:46;-0.90;99.90
16158;DHT22;8184;60.256;18.694;2024-01-25T13:32:14;-1.00;99.90
16158;DHT22;8184;60.256;18.694;2024-01-25T13:34:42;-1.00;99.90
16158;DHT22;8184;60.256;18.694;2024-01-25T13:37:11;-1.00;99.90
16158;DHT22;8184;60.256;18.694;2024-01-25T13:39:40;-0.90;99.90
16158;DHT22;8184;60.256;18.694;2024-01-25T13:42:09;-1.00;99.90
16158;DHT22;8184;60.256;18.694;2024-01-25T13:44:37;-0.90;99.90
16158;DHT22;8184;60.256;18.694;2024-01-25T13:47:06;-0.90;99.90
16158;DHT22;8184;60.256;18.694;2024-01-25T13:49:34;-0.90;99.90
16158;DHT22;8184;60.256;18.694;2024-01-25T13:52:03;-1.00;99.90
16158;DHT22;8184;60.256;18.694;2024-01-25T13:54:32;-1.00;99.90
16158;DHT22;8184;60.256;18.694;2024-01-25T13:57:02;-1.10;99.90
16158;DHT22;8184;60.256;18.694;2024-01-25T13:59:30;-1.10;99.90
16158;DHT22;8184;60.256;18.694;2024-01-25T14:01:58;-1.10;99.90
16158;DHT22;8184;60.256;18.694;2024-01-25T14:04:27;-1.10;99.90
16158;DHT22;8184;60.256;18.694;2024-01-25T14:06:55;-1.10;99.90
16158;DHT22;8184;60.256;18.694;2024-01-25T14:09:24;-1.20;99.90
16158;DHT22;8184;60.256;18.694;2024-01-25T14:11:52;-1.10;99.90
16158;DHT22;8184;60.256;18.694;2024-01-25T14:14:22;-1.20;99.90
16158;DHT22;8184;60.256;18.694;2024-01-25T14:16:50;-1.20;99.90
16158;DHT22;8184;60.256;18.694;2024-01-25T14:19:19;-1.20;99.90
16158;DHT22;8184;60.256;18.694;2024-01-25T14:21:49;-1.20;99.90
16158;DHT22;8184;60.256;18.694;2024-01-25T14:24:20;-1.10;99.90
16158;DHT22;8184;60.256;18.694;2024-01-25T14:26:50;-1.10;99.90
16158;DHT22;8184;60.256;18.694;2024-01-25T14:29:18;-1.10;99.90
16158;DHT22;8184;60.256;18.694;2024-01-25T14:31:48;-1.10;99.90
16158;DHT22;8184;60.256;18.694;2024-01-25T14:34:16;-1.10;99.90
16158;DHT22;8184;60.256;18.694;2024-01-25T14:36:45;-1.10;99.90
16158;DHT22;8184;60.256;18.694;2024-01-25T14:39:13;-1.20;99.90
16158;DHT22;8184;60.256;18.694;2024-01-25T14:41:42;-1.20;99.90
16158;DHT22;8184;60.256;18.694;2024-01-25T14:44:11;-1.20;99.90
16158;DHT22;8184;60.256;18.694;2024-01-25T14:46:39;-1.20;99.90
16158;DHT22;8184;60.256;18.694;2024-01-25T14:49:12;-1.20;99.90
16158;DHT22;8184;60.256;18.694;2024-01-25T14:51:41;-1.20;99.90
16158;DHT22;8184;60.256;18.694;2024-01-25T14:54:09;-1.20;99.90
16158;DHT22;8184;60.256;18.694;2024-01-25T14:56:38;-1.20;99.90
16158;DHT22;8184;60.256;18.694;2024-01-25T14:59:06;-1.20;99.90
16158;DHT22;8184;60.256;18.694;2024-01-25T15:01:34;-1.20;99.90
16158;DHT22;8184;60.256;18.694;2024-01-25T15:04:09;-1.20;99.90
16158;DHT22;8184;60.256;18.694;2024-01-25T15:06:39;-1.20;99.90
16158;DHT22;8184;60.256;18.694;2024-01-25T15:09:12;-1.20;99.90
16158;DHT22;8184;60.256;18.694;2024-01-25T15:11:40;-1.30;99.90
16158;DHT22;8184;60.256;18.694;2024-01-25T15:14:08;-1.30;99.90
16158;DHT22;8184;60.256;18.694;2024-01-25T15:16:37;-1.20;99.90
16158;DHT22;8184;60.256;18.694;2024-01-25T15:19:07;-1.30;99.90
16158;DHT22;8184;60.256;18.694;2024-01-25T15:21:36;-1.10;99.90
16158;DHT22;8184;60.256;18.694;2024-01-25T15:24:06;-1.20;99.90
16158;DHT22;8184;60.256;18.694;2024-01-25T15:26:34;-1.20;99.90
16158;DHT22;8184;60.256;18.694;2024-01-25T15:29:03;-1.20;99.90
16158;DHT22;8184;60.256;18.694;2024-01-25T15:31:33;-1.20;99.90
16158;DHT22;8184;60.256;18.694;2024-01-25T15:34:01;-1.20;99.90
16158;DHT22;8184;60.256;18.694;2024-01-25T15:36:30;-1.10;99.90
16158;DHT22;8184;60.256;18.694;2024-01-25T15:39:01;-1.10;99.90
16158;DHT22;8184;60.256;18.694;2024-01-25T15:41:32;-1.30;99.90